createdAt,value
2023-05-26T00:02:05.141Z,99929.54
2023-05-26T00:04:32.584Z,99923.34
2023-05-26T00:06:59.528Z,99926.30
2023-05-26T00:09:26.454Z,99930.08
2023-05-26T00:11:53.768Z,99933.59
2023-05-26T00:14:20.675Z,99940.45
2023-05-26T00:16:47.825Z,99939.23
2023-05-26T00:19:18.162Z,99938.95
2023-05-26T00:21:45.015Z,99936.85
2023-05-26T00:24:11.945Z,99940.30
2023-05-26T00:26:38.713Z,99937.07
2023-05-26T00:29:10.003Z,99939.21
2023-05-26T00:31:42.183Z,99940.99
2023-05-26T00:34:09.222Z,99941.05
2023-05-26T00:36:36.835Z,99945.14
2023-05-26T00:39:04.384Z,99946.29
2023-05-26T00:41:31.336Z,99946.43
2023-05-26T00:43:58.467Z,99946.00
2023-05-26T00:46:25.451Z,99953.61
2023-05-26T00:48:52.453Z,99948.84
2023-05-26T00:51:20.810Z,99946.93
2023-05-26T00:53:47.658Z,99952.54
2023-05-26T00:56:17.524Z,99952.45
2023-05-26T00:58:44.210Z,99954.98
2023-05-26T01:01:11.276Z,99959.95
2023-05-26T01:03:39.004Z,99953.77
2023-05-26T01:06:06.378Z,99955.61
2023-05-26T01:08:35.810Z,99953.77
2023-05-26T01:11:26.268Z,99955.39
2023-05-26T01:13:54.658Z,99958.70
2023-05-26T01:16:23.328Z,99952.33
2023-05-26T01:19:03.114Z,99950.59
2023-05-26T01:21:30.428Z,99952.02
2023-05-26T01:24:21.290Z,99948.48
2023-05-26T01:27:04.153Z,99946.19
2023-05-26T01:29:31.840Z,99946.77
2023-05-26T01:32:16.436Z,99948.07
2023-05-26T01:34:43.131Z,99944.05
2023-05-26T01:37:09.870Z,99939.15
2023-05-26T01:39:36.735Z,99935.45
2023-05-26T01:42:19.768Z,99935.21
2023-05-26T01:45:06.113Z,99934.73
2023-05-26T01:47:33.202Z,99937.15
2023-05-26T01:50:02.062Z,99937.73
2023-05-26T01:52:28.949Z,99941.61
2023-05-26T01:55:00.752Z,99942.39
2023-05-26T01:57:27.819Z,99940.83
2023-05-26T01:59:56.454Z,99942.56
2023-05-26T02:02:24.069Z,99945.60
2023-05-26T02:04:56.004Z,99946.02
2023-05-26T02:07:22.912Z,99948.55
2023-05-26T02:09:50.127Z,99945.95
2023-05-26T02:12:16.804Z,99946.68
2023-05-26T02:14:44.377Z,99944.98
2023-05-26T02:17:11.349Z,99943.34
2023-05-26T02:19:38.436Z,99944.08
2023-05-26T02:22:05.098Z,99940.23
2023-05-26T02:24:33.279Z,99937.88
2023-05-26T02:27:00.093Z,99937.61
2023-05-26T02:29:26.739Z,99935.01
2023-05-26T02:31:53.873Z,99938.19
2023-05-26T02:34:20.949Z,99937.46
2023-05-26T02:36:47.793Z,99935.74
2023-05-26T02:39:14.897Z,99938.34
2023-05-26T02:41:41.901Z,99934.55
2023-05-26T02:44:09.869Z,99933.09
2023-05-26T02:46:37.815Z,99931.71
2023-05-26T02:49:04.938Z,99934.34
2023-05-26T02:51:36.058Z,99938.01
2023-05-26T02:54:03.235Z,99930.41
2023-05-26T02:56:31.817Z,99931.73
2023-05-26T02:58:58.943Z,99929.69
2023-05-26T03:01:26.174Z,99931.11
2023-05-26T03:03:53.088Z,99929.83
2023-05-26T03:06:20.489Z,99936.45
2023-05-26T03:08:48.772Z,99939.73
2023-05-26T03:11:16.802Z,99939.23
2023-05-26T03:13:46.384Z,99939.36
2023-05-26T03:16:15.561Z,99941.67
2023-05-26T03:18:45.055Z,99939.02
2023-05-26T03:21:46.636Z,99940.33
2023-05-26T03:24:04.333Z,99935.96
2023-05-26T03:26:35.412Z,99930.46
2023-05-26T03:29:06.471Z,99933.05
2023-05-26T03:31:37.835Z,99935.89
2023-05-26T03:34:06.339Z,99939.20
2023-05-26T03:36:37.605Z,99939.31
2023-05-26T03:39:15.094Z,99938.95
2023-05-26T03:41:43.801Z,99939.05
2023-05-26T03:44:12.549Z,99943.13
2023-05-26T03:46:41.679Z,99946.94
2023-05-26T03:49:10.259Z,99938.33
2023-05-26T03:51:38.614Z,99932.58
2023-05-26T03:54:07.131Z,99927.50
2023-05-26T03:56:37.122Z,99926.43
2023-05-26T03:59:06.582Z,99923.61
2023-05-26T04:01:37.332Z,99927.50
2023-05-26T04:04:06.101Z,99929.33
2023-05-26T04:06:36.139Z,99931.16
2023-05-26T04:09:05.088Z,99941.33
2023-05-26T04:11:34.091Z,99938.50
2023-05-26T04:14:02.323Z,99937.46
2023-05-26T04:16:30.850Z,99939.27
2023-05-26T04:19:18.727Z,99932.13
2023-05-26T04:21:47.061Z,99926.21
2023-05-26T04:24:14.776Z,99921.65
2023-05-26T04:26:44.675Z,99921.88
2023-05-26T04:29:35.291Z,99926.01
2023-05-26T04:32:22.613Z,99930.17
2023-05-26T04:35:07.882Z,99937.20
2023-05-26T04:37:39.255Z,99935.30
2023-05-26T04:40:22.050Z,99941.83
2023-05-26T04:42:56.555Z,99940.05
2023-05-26T04:45:25.626Z,99940.15
2023-05-26T04:48:00.418Z,99945.00
2023-05-26T04:50:28.148Z,99947.43
2023-05-26T04:52:55.508Z,99950.11
2023-05-26T04:55:24.608Z,99953.95
2023-05-26T04:57:52.766Z,99952.03
2023-05-26T05:00:21.113Z,99948.69
2023-05-26T05:02:54.281Z,99950.71
2023-05-26T05:05:52.244Z,99954.00
2023-05-26T05:08:22.520Z,99957.39
2023-05-26T05:10:56.828Z,99963.95
2023-05-26T05:13:26.079Z,99968.19
2023-05-26T05:15:54.487Z,99975.65
2023-05-26T05:18:22.224Z,99978.33
2023-05-26T05:20:50.462Z,99977.45
2023-05-26T05:23:19.203Z,99972.64
2023-05-26T05:25:48.530Z,99976.29
2023-05-26T05:28:18.640Z,99975.92
2023-05-26T05:31:03.975Z,99973.83
2023-05-26T05:33:39.116Z,99970.45
2023-05-26T05:36:07.829Z,99971.84
2023-05-26T05:38:35.274Z,99976.68
2023-05-26T05:41:02.893Z,99976.39
2023-05-26T05:43:30.511Z,99978.99
2023-05-26T05:45:58.265Z,99977.55
2023-05-26T05:48:46.568Z,99979.27
2023-05-26T05:51:18.835Z,99984.00
2023-05-26T05:53:46.054Z,99981.65
2023-05-26T05:56:13.142Z,99982.66
2023-05-26T05:58:42.690Z,99978.66
2023-05-26T06:01:12.842Z,99975.48
2023-05-26T06:03:41.065Z,99973.42
2023-05-26T06:06:11.919Z,99968.95
2023-05-26T06:08:41.568Z,99969.56
2023-05-26T06:11:09.531Z,99969.67
2023-05-26T06:13:43.310Z,99965.83
2023-05-26T06:16:12.238Z,99970.06
2023-05-26T06:18:47.665Z,99966.95
2023-05-26T06:21:18.410Z,99970.31
2023-05-26T06:23:53.694Z,99968.37
2023-05-26T06:26:22.450Z,99968.86
2023-05-26T06:28:49.764Z,99967.18
2023-05-26T06:31:19.068Z,99971.69
2023-05-26T06:33:58.988Z,99976.53
2023-05-26T06:36:46.018Z,99976.66
2023-05-26T06:39:13.201Z,99976.17
2023-05-26T06:41:45.649Z,99974.96
2023-05-26T06:44:21.072Z,99970.34
2023-05-26T06:46:49.362Z,99970.47
2023-05-26T06:49:24.950Z,99975.18
2023-05-26T06:51:54.919Z,99975.26
2023-05-26T06:54:22.323Z,99975.55
2023-05-26T06:56:49.391Z,99973.73
2023-05-26T06:59:17.117Z,99977.06
2023-05-26T07:01:44.000Z,99978.81
2023-05-26T07:04:10.925Z,99978.89
2023-05-26T07:06:47.224Z,99982.48
2023-05-26T07:09:15.201Z,99987.68
2023-05-26T07:11:52.620Z,99991.84
2023-05-26T07:14:38.887Z,99994.89
2023-05-26T07:17:06.362Z,99993.98
2023-05-26T07:19:33.480Z,99994.19
2023-05-26T07:22:00.535Z,99990.34
2023-05-26T07:24:28.792Z,99988.82
2023-05-26T07:27:01.750Z,99991.75
2023-05-26T07:29:36.015Z,99991.98
2023-05-26T07:32:03.317Z,99991.80
2023-05-26T07:34:30.746Z,99991.77
2023-05-26T07:36:57.669Z,99992.77
2023-05-26T07:39:24.400Z,99992.48
2023-05-26T07:41:51.962Z,99998.07
2023-05-26T07:44:19.026Z,99994.18
2023-05-26T07:46:45.971Z,99999.14
2023-05-26T07:49:13.927Z,100000.37
2023-05-26T07:51:40.914Z,100002.33
2023-05-26T07:54:07.599Z,100000.73
2023-05-26T07:56:35.080Z,100001.86
2023-05-26T07:59:01.895Z,100002.18
2023-05-26T08:01:29.048Z,100002.45
2023-05-26T08:03:56.195Z,100001.98
2023-05-26T08:06:26.535Z,100001.80
2023-05-26T08:08:54.059Z,100000.71
2023-05-26T08:11:23.367Z,100002.58
2023-05-26T08:13:50.216Z,100003.93
2023-05-26T08:16:16.950Z,100003.01
2023-05-26T08:18:43.852Z,100002.22
2023-05-26T08:21:10.633Z,99999.54
2023-05-26T08:23:38.156Z,99996.98
2023-05-26T08:26:06.261Z,99995.38
2023-05-26T08:28:33.176Z,99992.75
2023-05-26T08:31:00.282Z,99994.47
2023-05-26T08:33:27.483Z,99985.73
2023-05-26T08:35:54.365Z,99983.50
2023-05-26T08:38:21.226Z,99979.23
2023-05-26T08:40:48.225Z,99976.85
2023-05-26T08:43:15.783Z,99972.64
2023-05-26T08:45:42.838Z,99966.66
2023-05-26T08:48:10.587Z,99961.77
2023-05-26T08:50:37.372Z,99962.03
2023-05-26T08:53:06.834Z,99955.05
2023-05-26T08:55:35.509Z,99941.29
2023-05-26T08:58:02.913Z,99934.70
2023-05-26T09:00:30.222Z,99933.45
2023-05-26T09:02:57.212Z,99933.54
2023-05-26T09:05:24.255Z,99929.95
2023-05-26T09:07:51.198Z,99929.14
2023-05-26T09:10:22.062Z,99921.45
2023-05-26T09:12:48.968Z,99919.88
2023-05-26T09:15:22.441Z,99913.70
2023-05-26T09:17:50.676Z,99909.84
2023-05-26T09:20:18.169Z,99910.85
2023-05-26T09:22:46.366Z,99911.02
2023-05-26T09:25:16.405Z,99903.39
2023-05-26T09:27:47.845Z,99897.84
2023-05-26T09:30:15.159Z,99892.05
2023-05-26T09:32:42.174Z,99892.13
2023-05-26T09:35:09.729Z,99888.83
2023-05-26T09:37:36.854Z,99883.89
2023-05-26T09:40:11.236Z,99884.07
2023-05-26T09:42:38.682Z,99881.19
2023-05-26T09:45:05.626Z,99880.55
2023-05-26T09:47:35.921Z,99876.08
2023-05-26T09:50:06.261Z,99874.56
2023-05-26T09:52:35.798Z,99875.06
2023-05-26T09:55:03.702Z,99870.14
2023-05-26T09:57:32.242Z,99866.77
2023-05-26T10:00:01.003Z,99862.40
2023-05-26T10:02:28.136Z,99859.63
2023-05-26T10:04:54.891Z,99857.20
2023-05-26T10:07:22.289Z,99853.25
2023-05-26T10:09:56.630Z,99850.83
2023-05-26T10:12:27.215Z,99848.52
2023-05-26T10:14:54.467Z,99845.45
2023-05-26T10:17:23.859Z,99847.39
2023-05-26T10:19:53.612Z,99843.17
2023-05-26T10:22:46.820Z,99842.14
2023-05-26T10:25:51.829Z,99844.88
2023-05-26T10:28:31.663Z,99847.79
2023-05-26T10:31:02.538Z,99848.35
2023-05-26T10:33:47.662Z,99848.55
2023-05-26T10:36:16.843Z,99849.13
2023-05-26T10:38:45.338Z,99851.02
2023-05-26T10:41:12.376Z,99848.75
2023-05-26T10:43:39.486Z,99845.08
2023-05-26T10:46:06.586Z,99842.63
2023-05-26T10:48:38.461Z,99833.94
2023-05-26T10:51:06.719Z,99828.17
2023-05-26T10:53:35.748Z,99823.17
2023-05-26T10:56:05.873Z,99819.59
2023-05-26T10:58:37.549Z,99818.79
2023-05-26T11:01:06.962Z,99817.37
2023-05-26T11:03:46.582Z,99813.35
2023-05-26T11:06:15.549Z,99807.51
2023-05-26T11:08:48.899Z,99805.55
2023-05-26T11:11:29.498Z,99804.86
2023-05-26T11:14:13.612Z,99803.42
2023-05-26T11:16:41.008Z,99797.28
2023-05-26T11:19:08.937Z,99796.88
2023-05-26T11:21:36.154Z,99797.25
2023-05-26T11:24:04.092Z,99795.77
2023-05-26T11:26:31.611Z,99796.61
2023-05-26T11:29:00.937Z,99801.27
2023-05-26T11:31:28.147Z,99804.45
2023-05-26T11:33:55.800Z,99804.90
2023-05-26T11:36:23.692Z,99802.60
2023-05-26T11:38:54.915Z,99796.17
2023-05-26T11:41:22.594Z,99795.23
2023-05-26T11:43:49.387Z,99797.57
2023-05-26T11:46:16.181Z,99798.52
2023-05-26T11:48:43.542Z,99800.88
2023-05-26T11:51:20.704Z,99798.83
2023-05-26T11:53:52.389Z,99795.28
2023-05-26T11:56:21.052Z,99788.05
2023-05-26T11:58:54.734Z,99788.52
2023-05-26T12:01:21.788Z,99789.14
2023-05-26T12:03:50.163Z,99790.86
2023-05-26T12:06:19.018Z,99792.05
2023-05-26T12:08:57.649Z,99791.64
2023-05-26T12:11:34.517Z,99785.41
2023-05-26T12:14:10.711Z,99785.60
2023-05-26T12:16:39.688Z,99782.50
2023-05-26T12:19:08.134Z,99783.76
2023-05-26T12:21:45.617Z,99782.32
2023-05-26T12:24:12.797Z,99783.98
2023-05-26T12:26:40.586Z,99785.80
2023-05-26T12:29:11.189Z,99785.92
2023-05-26T12:31:46.080Z,99782.98
2023-05-26T12:34:23.643Z,99785.58
2023-05-26T12:36:50.752Z,99788.05
2023-05-26T12:39:18.556Z,99790.86
2023-05-26T12:41:48.664Z,99789.60
2023-05-26T12:44:16.057Z,99786.85
2023-05-26T12:46:44.904Z,99786.54
2023-05-26T12:49:12.018Z,99784.10
2023-05-26T12:51:41.161Z,99785.25
2023-05-26T12:54:09.096Z,99778.88
2023-05-26T12:56:36.648Z,99780.88
2023-05-26T12:59:17.336Z,99775.98
2023-05-26T13:01:47.586Z,99773.96
2023-05-26T13:04:16.042Z,99774.00
2023-05-26T13:06:43.388Z,99774.70
2023-05-26T13:09:13.067Z,99773.45
2023-05-26T13:11:40.815Z,99767.63
2023-05-26T13:14:07.762Z,99759.30
2023-05-26T13:16:35.488Z,99749.00
2023-05-26T13:19:02.701Z,99747.69
2023-05-26T13:21:29.919Z,99748.80
2023-05-26T13:23:58.166Z,99746.71
2023-05-26T13:26:30.349Z,99748.66
2023-05-26T13:28:58.815Z,99749.86
2023-05-26T13:31:30.824Z,99750.52
2023-05-26T13:33:59.333Z,99752.67
2023-05-26T13:36:26.426Z,99755.20
2023-05-26T13:38:53.490Z,99756.61
2023-05-26T13:41:20.901Z,99761.59
2023-05-26T13:43:47.868Z,99759.70
2023-05-26T13:46:21.955Z,99755.02
2023-05-26T13:48:49.000Z,99747.54
2023-05-26T13:51:16.279Z,99743.26
2023-05-26T13:53:43.196Z,99745.80
2023-05-26T13:56:24.727Z,99753.40
2023-05-26T13:58:54.570Z,99764.77
2023-05-26T14:01:34.915Z,99775.45
2023-05-26T14:04:08.371Z,99779.10
2023-05-26T14:06:36.782Z,99780.73
2023-05-26T14:09:09.659Z,99784.56
2023-05-26T14:11:40.662Z,99781.31
2023-05-26T14:14:07.434Z,99787.51
2023-05-26T14:16:35.128Z,99790.86
2023-05-26T14:19:06.467Z,99785.41
2023-05-26T14:22:06.123Z,99788.86
2023-05-26T14:24:26.773Z,99788.04
2023-05-26T14:26:54.309Z,99785.77
2023-05-26T14:29:22.272Z,99790.36
2023-05-26T14:31:49.314Z,99796.77
2023-05-26T14:34:16.268Z,99795.52
2023-05-26T14:36:43.260Z,99800.95
2023-05-26T14:39:11.820Z,99805.88
2023-05-26T14:41:39.531Z,99804.77
2023-05-26T14:44:06.339Z,99808.15
2023-05-26T14:46:33.183Z,99808.25
2023-05-26T14:49:00.181Z,99803.84
2023-05-26T14:51:27.192Z,99802.44
2023-05-26T14:53:54.020Z,99800.98
2023-05-26T14:56:21.310Z,99805.88
2023-05-26T14:58:47.959Z,99818.67
2023-05-26T15:01:15.407Z,99822.29
2023-05-26T15:06:15.863Z,99834.84
2023-05-26T15:08:43.515Z,99839.85
2023-05-26T15:11:10.465Z,99850.55
2023-05-26T15:13:37.513Z,99865.84
2023-05-26T15:16:04.609Z,99877.21
2023-05-26T15:18:31.579Z,99887.66
2023-05-26T15:21:00.246Z,99892.13
2023-05-26T15:23:27.462Z,99900.64
2023-05-26T15:25:54.600Z,99902.39
2023-05-26T15:28:24.348Z,99896.91
2023-05-26T15:30:51.325Z,99895.94
2023-05-26T15:33:18.307Z,99894.62
2023-05-26T15:35:45.137Z,99892.14
2023-05-26T15:38:12.362Z,99886.88
2023-05-26T15:40:39.697Z,99877.98
2023-05-26T15:43:06.737Z,99873.92
2023-05-26T15:45:34.238Z,99877.33
2023-05-26T15:48:01.181Z,99882.03
2023-05-26T15:50:27.986Z,99884.29
2023-05-26T15:52:55.037Z,99887.39
2023-05-26T15:55:21.785Z,99885.06
2023-05-26T15:57:48.550Z,99881.73
2023-05-26T16:00:15.614Z,99873.95
2023-05-26T16:02:42.801Z,99875.44
2023-05-26T16:05:09.927Z,99880.21
2023-05-26T16:07:36.939Z,99877.02
2023-05-26T16:10:10.076Z,99876.59
2023-05-26T16:12:41.260Z,99874.21
2023-05-26T16:15:08.857Z,99873.80
2023-05-26T16:17:36.071Z,99871.58
2023-05-26T16:20:03.450Z,99872.02
2023-05-26T16:22:30.617Z,99874.16
2023-05-26T16:24:57.570Z,99876.80
2023-05-26T16:27:24.702Z,99875.80
2023-05-26T16:29:51.470Z,99873.97
2023-05-26T16:32:18.421Z,99876.11
2023-05-26T16:34:45.370Z,99872.09
2023-05-26T16:37:12.204Z,99869.31
2023-05-26T16:39:39.212Z,99869.03
2023-05-26T16:42:06.762Z,99867.61
2023-05-26T16:44:34.831Z,99870.83
2023-05-26T16:47:02.982Z,99867.95
2023-05-26T16:49:30.391Z,99868.65
2023-05-26T16:51:57.151Z,99865.54
2023-05-26T16:54:24.141Z,99857.12
2023-05-26T16:56:51.405Z,99860.92
2023-05-26T16:59:18.047Z,99860.42
2023-05-26T17:01:46.856Z,99861.69
2023-05-26T17:04:14.092Z,99858.91
2023-05-26T17:06:41.017Z,99863.26
2023-05-26T17:09:09.576Z,99864.90
2023-05-26T17:11:36.699Z,99864.05
2023-05-26T17:14:03.713Z,99865.66
2023-05-26T17:16:30.900Z,99873.41
2023-05-26T17:18:57.749Z,99874.63
2023-05-26T17:21:24.603Z,99879.77
2023-05-26T17:23:52.126Z,99882.34
2023-05-26T17:26:20.013Z,99885.16
2023-05-26T17:28:46.842Z,99886.92
2023-05-26T17:31:13.850Z,99878.38
2023-05-26T17:33:42.159Z,99872.77
2023-05-26T17:36:09.182Z,99870.25
2023-05-26T17:38:38.355Z,99870.54
2023-05-26T17:41:06.607Z,99866.11
2023-05-26T17:43:34.156Z,99867.52
2023-05-26T17:46:01.178Z,99874.88
2023-05-26T17:48:28.681Z,99876.02
2023-05-26T17:50:55.943Z,99877.98
2023-05-26T17:53:22.899Z,99876.45
2023-05-26T17:55:50.319Z,99878.79
2023-05-26T17:58:17.864Z,99875.39
2023-05-26T18:00:46.146Z,99876.05
2023-05-26T18:03:13.840Z,99874.77
2023-05-26T18:05:41.369Z,99877.70
2023-05-26T18:08:08.605Z,99880.61
2023-05-26T18:10:35.779Z,99880.45
2023-05-26T18:13:04.663Z,99878.30
2023-05-26T18:15:32.313Z,99880.23
2023-05-26T18:18:04.424Z,99879.56
2023-05-26T18:20:31.843Z,99879.20
2023-05-26T18:22:59.783Z,99872.87
2023-05-26T18:25:27.691Z,99875.55
2023-05-26T18:28:01.617Z,99881.80
2023-05-26T18:30:29.212Z,99891.30
2023-05-26T18:32:57.760Z,99895.24
2023-05-26T18:35:25.498Z,99898.16
2023-05-26T18:37:57.927Z,99896.85
2023-05-26T18:40:24.997Z,99895.27
2023-05-26T18:42:51.682Z,99891.83
2023-05-26T18:45:18.515Z,99890.32
2023-05-26T18:47:45.732Z,99890.61
2023-05-26T18:50:15.376Z,99891.56
2023-05-26T18:52:45.840Z,99889.39
2023-05-26T18:55:13.099Z,99894.29
2023-05-26T18:57:40.238Z,99897.91
2023-05-26T19:00:08.439Z,99892.64
2023-05-26T19:02:36.502Z,99892.46
2023-05-26T19:05:03.706Z,99889.44
2023-05-26T19:07:31.162Z,99892.77
2023-05-26T19:09:58.027Z,99888.19
2023-05-26T19:12:24.772Z,99888.63
2023-05-26T19:14:51.827Z,99883.51
2023-05-26T19:17:18.849Z,99885.98
2023-05-26T19:19:46.428Z,99879.80
2023-05-26T19:22:18.629Z,99879.45
2023-05-26T19:24:46.263Z,99876.63
2023-05-26T19:27:13.107Z,99880.96
2023-05-26T19:29:40.093Z,99879.30
2023-05-26T19:32:07.196Z,99873.02
2023-05-26T19:34:34.098Z,99874.90
2023-05-26T19:37:01.603Z,99869.30
2023-05-26T19:39:30.219Z,99870.61
2023-05-26T19:41:57.036Z,99866.52
2023-05-26T19:44:24.128Z,99866.84
2023-05-26T19:46:55.082Z,99869.44
2023-05-26T19:49:22.361Z,99865.95
2023-05-26T19:51:49.444Z,99863.31
2023-05-26T19:54:16.121Z,99857.05
2023-05-26T19:56:43.132Z,99859.55
2023-05-26T19:59:10.984Z,99861.12
2023-05-26T20:01:38.806Z,99852.85
2023-05-26T20:04:07.030Z,99851.94
2023-05-26T20:06:37.647Z,99850.65
2023-05-26T20:09:05.332Z,99845.14
2023-05-26T20:11:32.215Z,99839.98
2023-05-26T20:13:59.435Z,99837.11
2023-05-26T20:16:26.983Z,99835.70
2023-05-26T20:18:53.871Z,99832.65
2023-05-26T20:21:20.788Z,99829.88
2023-05-26T20:23:48.826Z,99825.55
2023-05-26T20:26:15.829Z,99816.64
2023-05-26T20:28:42.962Z,99818.35
2023-05-26T20:31:09.766Z,99817.42
2023-05-26T20:33:38.153Z,99815.59
2023-05-26T20:36:06.999Z,99810.54
2023-05-26T20:38:35.956Z,99809.63
2023-05-26T20:41:03.410Z,99807.05
2023-05-26T20:43:31.183Z,99806.56
2023-05-26T20:45:58.010Z,99808.80
2023-05-26T20:48:26.214Z,99810.80
2023-05-26T20:50:58.217Z,99811.55
2023-05-26T20:53:24.924Z,99814.27
2023-05-26T20:55:51.860Z,99817.99
2023-05-26T20:58:19.053Z,99814.99
2023-05-26T21:00:46.256Z,99814.08
2023-05-26T21:03:13.353Z,99816.38
2023-05-26T21:05:41.349Z,99817.33
2023-05-26T21:08:08.529Z,99815.86
2023-05-26T21:10:36.458Z,99810.39
2023-05-26T21:13:04.078Z,99809.83
2023-05-26T21:15:32.261Z,99811.38
2023-05-26T21:17:59.268Z,99813.63
2023-05-26T21:20:26.272Z,99810.73
2023-05-26T21:22:53.045Z,99814.61
2023-05-26T21:25:20.854Z,99811.41
2023-05-26T21:27:52.710Z,99805.20
2023-05-26T21:30:22.208Z,99804.34
2023-05-26T21:32:55.379Z,99804.22
2023-05-26T21:35:22.720Z,99804.32
2023-05-26T21:37:51.452Z,99808.05
2023-05-26T21:40:18.338Z,99808.80
2023-05-26T21:42:45.359Z,99809.19
2023-05-26T21:45:12.125Z,99810.99
2023-05-26T21:47:39.636Z,99809.55
2023-05-26T21:50:07.786Z,99814.00
2023-05-26T21:52:36.548Z,99815.92
2023-05-26T21:55:03.904Z,99815.30
2023-05-26T21:57:30.790Z,99817.49
2023-05-26T21:59:57.822Z,99818.20
2023-05-26T22:02:24.794Z,99814.85
2023-05-26T22:04:51.726Z,99817.05
2023-05-26T22:07:18.482Z,99818.81
2023-05-26T22:09:45.656Z,99816.75
2023-05-26T22:12:12.716Z,99812.18
2023-05-26T22:14:39.742Z,99811.06
2023-05-26T22:17:06.609Z,99809.73
2023-05-26T22:19:34.058Z,99807.00
2023-05-26T22:22:01.050Z,99808.03
2023-05-26T22:24:27.833Z,99805.14
2023-05-26T22:26:55.305Z,99805.88
2023-05-26T22:29:22.481Z,99803.48
2023-05-26T22:31:49.313Z,99801.73
2023-05-26T22:34:16.353Z,99801.50
2023-05-26T22:36:43.663Z,99802.08
2023-05-26T22:39:10.813Z,99802.91
2023-05-26T22:41:37.883Z,99802.79
2023-05-26T22:44:04.702Z,99799.48
2023-05-26T22:46:31.669Z,99796.17
2023-05-26T22:48:58.424Z,99796.19
2023-05-26T22:51:25.525Z,99794.23
2023-05-26T22:53:52.330Z,99793.31
2023-05-26T22:56:19.430Z,99799.09
2023-05-26T22:58:46.589Z,99795.92
2023-05-26T23:01:13.853Z,99798.45
2023-05-26T23:03:40.903Z,99798.89
2023-05-26T23:06:07.896Z,99801.66
2023-05-26T23:08:35.795Z,99804.16
2023-05-26T23:11:02.648Z,99803.73
2023-05-26T23:13:30.799Z,99803.61
2023-05-26T23:15:57.572Z,99809.64
2023-05-26T23:18:24.572Z,99804.77
2023-05-26T23:20:51.436Z,99810.54
2023-05-26T23:23:21.314Z,99813.36
2023-05-26T23:25:48.890Z,99811.85
2023-05-26T23:28:15.713Z,99813.20
2023-05-26T23:30:43.128Z,99814.86
2023-05-26T23:33:10.511Z,99814.04
2023-05-26T23:35:37.213Z,99812.69
2023-05-26T23:38:03.976Z,99811.29
2023-05-26T23:40:31.357Z,99812.73
2023-05-26T23:42:59.034Z,99815.77
2023-05-26T23:45:26.923Z,99817.74
2023-05-26T23:47:54.060Z,99820.91
2023-05-26T23:50:21.027Z,99820.46
2023-05-26T23:52:48.087Z,99824.10
2023-05-26T23:55:15.102Z,99821.05
2023-05-26T23:57:41.929Z,99821.59
